Time;durP1;ratioP1;P1;durP2;ratioP2;P2;SDS_P1;SDS_P2;PMS_P1;PMS_P2;Temp;Humidity;BMP_temperature;BMP_pressure;BME280_temperature;BME280_humidity;BME280_pressure;Samples;Min_cycle;Max_cycle;Signal;HPM_P1;HPM_P2
2023/10/19 00:00:21;;;;;;;;;;;;;;;12.21;62.57;99799.94;5071106;28;20016;-77
2023/10/19 00:02:51;;;;;;;;;;;;;;;12.12;62.43;99793.09;5070888;28;19908;-76
2023/10/19 00:05:16;;;;;;;;;;;;;;;12.02;62.46;99791.53;5071033;28;19924;-76
2023/10/19 00:07:42;;;;;;;;;;;;;;;12.02;62.48;99796.81;5071432;28;19924;-77
2023/10/19 00:10:07;;;;;;;;;;;;;;;12.07;61.66;99789.16;5074705;28;19917;-76
2023/10/19 00:12:33;;;;;;;;;;;;;;;12.05;62.17;99793.00;5074551;28;19917;-76
2023/10/19 00:14:59;;;;;;;;;;;;;;;12.00;62.45;99787.41;5074662;28;19913;-76
2023/10/19 00:17:27;;;;;;;;;;;;;;;11.96;61.80;99789.63;5074229;28;19924;-76
2023/10/19 00:20:27;;;;;;;;;;;;;;;11.93;62.01;99781.22;5074261;28;19952;-77
2023/10/19 00:22:44;;;;;;;;;;;;;;;11.90;61.89;99779.75;5074078;28;19904;-77
2023/10/19 00:25:13;;;;;;;;;;;;;;;11.86;62.49;99782.91;5074430;28;19912;-76
2023/10/19 00:27:39;;;;;;;;;;;;;;;11.81;62.13;99786.09;5074458;28;19916;-77
2023/10/19 00:30:08;;;;;;;;;;;;;;;11.78;62.73;99783.81;5074345;28;19913;-76
2023/10/19 00:32:38;;;;;;;;;;;;;;;11.80;61.77;99781.81;5074335;28;19912;-76
2023/10/19 00:35:09;;;;;;;;;;;;;;;11.80;62.11;99780.97;5074221;28;19912;-76
2023/10/19 00:37:42;;;;;;;;;;;;;;;11.72;62.52;99780.03;5074201;28;19916;-77
2023/10/19 00:40:15;;;;;;;;;;;;;;;11.71;62.56;99773.09;5074482;28;19948;-77
2023/10/19 00:42:45;;;;;;;;;;;;;;;11.68;62.12;99775.28;5074052;28;19959;-77
2023/10/19 00:45:13;;;;;;;;;;;;;;;11.64;61.80;99774.81;5073848;28;19999;-76
2023/10/19 00:47:39;;;;;;;;;;;;;;;11.59;62.34;99774.53;5073740;28;19935;-77
2023/10/19 00:50:05;;;;;;;;;;;;;;;11.60;62.09;99770.88;5073779;28;19998;-76
2023/10/19 00:52:32;;;;;;;;;;;;;;;11.64;61.36;99772.16;5073927;28;19919;-76
2023/10/19 00:54:58;;;;;;;;;;;;;;;11.59;62.64;99765.78;5073911;28;20300;-76
2023/10/19 00:57:33;;;;;;;;;;;;;;;11.54;61.91;99773.41;5073704;28;19916;-77
2023/10/19 01:00:29;;;;;;;;;;;;;;;11.48;62.31;99759.09;5073728;28;19912;-77
2023/10/19 01:02:46;;;;;;;;;;;;;;;11.45;62.55;99752.34;5073254;28;19948;-77
2023/10/19 01:05:13;;;;;;;;;;;;;;;11.40;62.49;99764.44;5073476;28;19967;-76
2023/10/19 01:07:39;;;;;;;;;;;;;;;11.40;61.73;99759.97;5073508;28;19916;-76
2023/10/19 01:10:20;;;;;;;;;;;;;;;11.41;61.89;99761.63;5073486;28;20042;-76
2023/10/19 01:12:45;;;;;;;;;;;;;;;11.43;61.66;99758.81;5073618;28;19971;-77
2023/10/19 01:15:23;;;;;;;;;;;;;;;11.40;61.84;99764.44;5073442;28;20407;-77
2023/10/19 01:17:52;;;;;;;;;;;;;;;11.40;61.42;99753.88;5073161;28;19917;-77
2023/10/19 01:20:22;;;;;;;;;;;;;;;11.41;62.09;99752.88;5072234;28;19919;-76
2023/10/19 01:22:50;;;;;;;;;;;;;;;11.36;62.27;99749.94;5073240;28;19919;-76
2023/10/19 01:25:16;;;;;;;;;;;;;;;11.30;61.87;99743.53;5073110;28;19919;-76
2023/10/19 01:27:41;;;;;;;;;;;;;;;11.27;62.13;99751.00;5071969;28;19916;-77
2023/10/19 01:30:09;;;;;;;;;;;;;;;11.26;61.51;99742.25;5072956;28;19913;-77
2023/10/19 01:32:34;;;;;;;;;;;;;;;11.21;62.19;99744.59;5072893;28;20372;-76
2023/10/19 01:34:59;;;;;;;;;;;;;;;11.18;61.80;99731.75;5072866;28;19992;-77
2023/10/19 01:37:25;;;;;;;;;;;;;;;11.18;62.04;99738.84;5073026;28;20430;-75
2023/10/19 01:39:50;;;;;;;;;;;;;;;11.20;61.88;99736.84;5072956;28;19913;-77
2023/10/19 01:42:17;;;;;;;;;;;;;;;11.17;61.71;99748.59;5072578;28;19920;-77
2023/10/19 01:44:42;;;;;;;;;;;;;;;11.16;62.07;99736.38;5072667;28;20384;-76
2023/10/19 01:47:07;;;;;;;;;;;;;;;11.20;61.52;99735.03;5072656;28;19919;-77
2023/10/19 01:49:33;;;;;;;;;;;;;;;11.21;62.10;99734.03;5072639;28;19935;-77
2023/10/19 01:51:58;;;;;;;;;;;;;;;11.21;61.61;99736.69;5072785;28;19913;-77
2023/10/19 01:54:26;;;;;;;;;;;;;;;11.19;61.52;99736.03;5072613;28;20372;-76
2023/10/19 01:56:54;;;;;;;;;;;;;;;11.13;61.28;99734.06;5072644;28;19999;-76
2023/10/19 01:59:20;;;;;;;;;;;;;;;11.12;61.69;99725.31;5072502;28;19916;-76
2023/10/19 02:01:46;;;;;;;;;;;;;;;11.05;61.89;99731.50;5072601;28;19920;-75
2023/10/19 02:04:13;;;;;;;;;;;;;;;11.00;62.16;99731.19;5072502;28;19921;-77
2023/10/19 02:06:40;;;;;;;;;;;;;;;11.04;61.48;99732.47;5072514;28;19912;-76
2023/10/19 02:09:31;;;;;;;;;;;;;;;11.04;61.77;99732.47;5071149;28;19909;-75
2023/10/19 02:11:57;;;;;;;;;;;;;;;11.01;61.93;99735.47;5072150;28;19912;-76
2023/10/19 02:14:24;;;;;;;;;;;;;;;11.06;61.58;99735.78;5072099;28;19919;-77
2023/10/19 02:16:56;;;;;;;;;;;;;;;11.07;61.51;99737.41;5072312;28;20001;-76
2023/10/19 02:19:22;;;;;;;;;;;;;;;10.98;61.46;99730.56;5070774;28;19931;-76
2023/10/19 02:21:48;;;;;;;;;;;;;;;10.88;61.25;99738.72;5070766;28;19920;-76
2023/10/19 02:24:16;;;;;;;;;;;;;;;10.79;61.86;99743.22;5072124;28;19912;-77
2023/10/19 02:26:42;;;;;;;;;;;;;;;10.72;62.39;99738.81;5071977;28;20352;-76
2023/10/19 02:29:09;;;;;;;;;;;;;;;10.65;62.04;99737.84;5071910;28;19919;-76
2023/10/19 02:31:37;;;;;;;;;;;;;;;10.64;62.08;99741.50;5071806;28;19956;-76
2023/10/19 02:34:04;;;;;;;;;;;;;;;10.69;61.58;99744.44;5071911;28;19912;-76
2023/10/19 02:36:30;;;;;;;;;;;;;;;10.69;61.34;99739.97;5071864;28;19912;-76
2023/10/19 02:39:07;;;;;;;;;;;;;;;10.59;62.19;99743.84;5071775;28;19940;-76
2023/10/19 02:41:35;;;;;;;;;;;;;;;10.58;61.83;99737.72;5071991;28;19919;-76
2023/10/19 02:44:09;;;;;;;;;;;;;;;10.53;61.30;99747.16;5071961;28;19965;-77
2023/10/19 02:46:38;;;;;;;;;;;;;;;10.49;62.00;99738.78;5071741;28;19970;-76
2023/10/19 02:49:10;;;;;;;;;;;;;;;10.38;61.61;99733.84;5071703;28;20419;-76
2023/10/19 02:51:36;;;;;;;;;;;;;;;10.30;61.82;99734.69;5071826;28;19913;-76
2023/10/19 02:54:02;;;;;;;;;;;;;;;10.18;61.91;99731.59;5071742;28;19912;-76
2023/10/19 02:56:29;;;;;;;;;;;;;;;10.19;62.13;99727.94;5071826;28;19942;-76
2023/10/19 02:59:01;;;;;;;;;;;;;;;10.23;61.83;99732.91;5071747;28;19916;-77
2023/10/19 03:01:29;;;;;;;;;;;;;;;10.15;62.55;99733.75;5070465;28;20411;-76
2023/10/19 03:03:59;;;;;;;;;;;;;;;10.16;62.01;99730.94;5071577;28;19920;-76
2023/10/19 03:06:25;;;;;;;;;;;;;;;10.16;62.30;99728.28;5071691;28;19918;-75
2023/10/19 03:09:01;;;;;;;;;;;;;;;10.25;61.56;99728.28;5071600;28;19912;-76
2023/10/19 03:11:29;;;;;;;;;;;;;;;10.31;61.61;99735.53;5071549;28;19959;-76
2023/10/19 03:13:54;;;;;;;;;;;;;;;10.34;61.66;99736.00;5070327;28;19916;-77
2023/10/19 03:16:21;;;;;;;;;;;;;;;10.34;61.84;99732.53;5071640;28;19919;-76
2023/10/19 03:18:46;;;;;;;;;;;;;;;10.28;61.63;99731.41;5071507;28;20359;-76
2023/10/19 03:21:12;;;;;;;;;;;;;;;10.26;62.15;99730.75;5071359;28;19920;-77
2023/10/19 03:23:37;;;;;;;;;;;;;;;10.26;62.26;99733.41;5071278;28;19962;-77
2023/10/19 03:28:47;;;;;;;;;;;;;;;10.24;61.67;99734.56;5071304;28;20039;-77
2023/10/19 03:31:18;;;;;;;;;;;;;;;10.23;61.96;99739.03;5070128;28;20003;-75
2023/10/19 03:33:54;;;;;;;;;;;;;;;10.23;62.19;99738.19;5071384;28;19966;-76
2023/10/19 03:36:19;;;;;;;;;;;;;;;10.21;61.47;99738.38;5071433;28;19919;-76
2023/10/19 03:38:45;;;;;;;;;;;;;;;10.19;61.85;99738.50;5069957;28;19920;-77
2023/10/19 03:41:11;;;;;;;;;;;;;;;10.23;61.83;99738.19;5071170;28;19913;-77
2023/10/19 03:43:42;;;;;;;;;;;;;;;10.22;61.90;99731.28;5071557;28;19913;-76
2023/10/19 03:48:51;;;;;;;;;;;;;;;10.00;62.28;99731.00;5075380;28;20001;-75
2023/10/19 03:51:17;;;;;;;;;;;;;;;9.92;62.04;99733.66;5075027;28;19913;-76
2023/10/19 03:53:53;;;;;;;;;;;;;;;9.88;62.08;99727.91;5074970;28;19912;-76
2023/10/19 03:56:18;;;;;;;;;;;;;;;9.95;61.93;99719.31;5074968;28;19920;-76
2023/10/19 03:58:47;;;;;;;;;;;;;;;9.96;61.71;99720.94;5074637;28;19917;-75
2023/10/19 04:01:16;;;;;;;;;;;;;;;9.91;61.68;99721.47;5074741;28;19919;-77
2023/10/19 04:03:41;;;;;;;;;;;;;;;9.85;62.07;99717.69;5074670;28;19965;-76
2023/10/19 04:06:13;;;;;;;;;;;;;;;9.95;61.49;99725.41;5074665;28;20338;-76
2023/10/19 04:08:38;;;;;;;;;;;;;;;9.99;61.72;99718.78;5074553;28;19936;-77
2023/10/19 04:11:21;;;;;;;;;;;;;;;10.10;61.77;99722.88;5074577;28;20382;-77
2023/10/19 04:13:46;;;;;;;;;;;;;;;10.15;61.73;99721.38;5073345;28;20304;-76
2023/10/19 04:16:12;;;;;;;;;;;;;;;10.21;61.64;99719.91;5074603;28;19912;-77
2023/10/19 04:18:38;;;;;;;;;;;;;;;10.28;61.21;99718.22;5073154;28;20380;-76
2023/10/19 04:21:04;;;;;;;;;;;;;;;10.34;61.31;99725.44;5074633;28;20392;-77
2023/10/19 04:23:34;;;;;;;;;;;;;;;10.39;60.89;99733.66;5074437;28;19956;-77
2023/10/19 04:26:04;;;;;;;;;;;;;;;10.41;60.70;99733.53;5074739;28;19915;-78
2023/10/19 04:28:45;;;;;;;;;;;;;;;10.42;60.19;99735.19;5074617;28;19928;-77
2023/10/19 04:31:14;;;;;;;;;;;;;;;10.35;61.15;99736.81;5074149;28;19912;-77
2023/10/19 04:33:39;;;;;;;;;;;;;;;10.39;60.95;99735.50;5074199;28;19950;-78
2023/10/19 04:36:08;;;;;;;;;;;;;;;10.40;61.31;99732.72;5074229;28;19943;-77
2023/10/19 04:38:34;;;;;;;;;;;;;;;10.41;61.05;99731.72;5074193;28;20010;-77
2023/10/19 04:41:08;;;;;;;;;;;;;;;10.40;60.78;99730.06;5074108;28;19932;-77
2023/10/19 04:43:35;;;;;;;;;;;;;;;10.43;61.25;99734.19;5074471;28;19935;-78
2023/10/19 04:46:07;;;;;;;;;;;;;;;10.40;60.69;99734.50;5073973;28;20335;-77
2023/10/19 04:48:33;;;;;;;;;;;;;;;10.35;60.66;99731.53;5074122;28;19913;-77
2023/10/19 04:50:58;;;;;;;;;;;;;;;10.24;61.23;99739.84;5074050;28;19985;-77
2023/10/19 04:53:23;;;;;;;;;;;;;;;10.16;61.22;99745.94;5073922;28;20343;-78
2023/10/19 04:55:48;;;;;;;;;;;;;;;10.14;60.82;99734.72;5073599;28;19923;-77
2023/10/19 04:58:14;;;;;;;;;;;;;;;10.12;61.21;99745.47;5073497;28;19916;-77
2023/10/19 05:00:39;;;;;;;;;;;;;;;10.10;61.04;99746.63;5073940;28;20289;-77
2023/10/19 05:03:06;;;;;;;;;;;;;;;10.09;60.92;99743.16;5074048;28;19912;-77
2023/10/19 05:05:31;;;;;;;;;;;;;;;10.03;61.10;99745.66;5073505;28;19974;-76
2023/10/19 05:07:57;;;;;;;;;;;;;;;9.97;61.04;99751.59;5073451;28;20384;-76
2023/10/19 05:10:22;;;;;;;;;;;;;;;9.95;60.78;99754.41;5073283;28;20315;-75
2023/10/19 05:12:48;;;;;;;;;;;;;;;9.92;60.92;99752.13;5073299;28;19916;-75
2023/10/19 05:15:13;;;;;;;;;;;;;;;9.94;61.37;99758.03;5073347;28;19978;-75
2023/10/19 05:17:38;;;;;;;;;;;;;;;9.94;60.87;99759.84;5072983;28;20331;-75
2023/10/19 05:20:05;;;;;;;;;;;;;;;9.95;61.21;99754.41;5061304;28;20428;-75
2023/10/19 05:22:32;;;;;;;;;;;;;;;9.98;60.83;99756.72;5057356;28;20393;-75
2023/10/19 05:24:57;;;;;;;;;;;;;;;9.97;60.85;99757.72;5061596;28;20004;-75
2023/10/19 05:27:23;;;;;;;;;;;;;;;10.00;61.05;99756.53;5071814;28;19919;-75
2023/10/19 05:29:48;;;;;;;;;;;;;;;10.07;61.39;99760.16;5073178;28;19916;-75
2023/10/19 05:32:14;;;;;;;;;;;;;;;10.16;61.23;99761.78;5073076;28;20018;-75
2023/10/19 05:34:39;;;;;;;;;;;;;;;10.23;60.95;99756.66;5073043;28;19944;-76
2023/10/19 05:37:05;;;;;;;;;;;;;;;10.24;60.62;99753.84;5072863;28;19960;-75
2023/10/19 05:39:31;;;;;;;;;;;;;;;10.26;61.02;99751.03;5072839;28;20408;-76
2023/10/19 05:42:00;;;;;;;;;;;;;;;10.30;60.80;99766.38;5073100;28;20427;-76
2023/10/19 05:44:25;;;;;;;;;;;;;;;10.33;60.88;99767.84;5072302;28;20388;-76
2023/10/19 05:46:51;;;;;;;;;;;;;;;10.34;60.55;99766.84;5072552;28;19962;-76
2023/10/19 05:49:16;;;;;;;;;;;;;;;10.40;60.63;99766.16;5072461;28;19956;-76
2023/10/19 05:51:44;;;;;;;;;;;;;;;10.43;61.40;99774.59;5072665;28;19912;-76
2023/10/19 05:54:09;;;;;;;;;;;;;;;10.48;60.93;99766.97;5072376;28;19920;-76
2023/10/19 05:56:34;;;;;;;;;;;;;;;10.51;60.96;99765.81;5072328;28;19912;-76
2023/10/19 05:59:01;;;;;;;;;;;;;;;10.54;60.50;99765.47;5070750;28;20007;-76
2023/10/19 06:01:26;;;;;;;;;;;;;;;10.57;61.11;99767.78;5072098;28;19969;-76
2023/10/19 06:03:51;;;;;;;;;;;;;;;10.62;60.89;99765.44;5066078;28;19956;-76
2023/10/19 06:06:17;;;;;;;;;;;;;;;10.66;60.66;99766.72;5063422;28;20453;-76
2023/10/19 06:08:42;;;;;;;;;;;;;;;10.70;60.19;99768.03;5070906;28;19919;-76
2023/10/19 06:11:07;;;;;;;;;;;;;;;10.77;60.13;99765.50;5072221;28;19913;-75
2023/10/19 06:13:33;;;;;;;;;;;;;;;10.78;60.61;99764.53;5055944;28;20098;-75
2023/10/19 06:15:58;;;;;;;;;;;;;;;10.86;60.45;99768.94;5050511;28;19913;-76
2023/10/19 06:18:24;;;;;;;;;;;;;;;10.91;60.63;99763.94;5051567;28;19917;-76
2023/10/19 06:20:51;;;;;;;;;;;;;;;10.95;60.42;99765.25;5051859;28;19920;-75
2023/10/19 06:23:17;;;;;;;;;;;;;;;11.00;60.46;99766.38;5051903;28;19913;-76
2023/10/19 06:25:43;;;;;;;;;;;;;;;11.03;60.40;99775.75;5066300;28;19922;-76
2023/10/19 06:28:08;;;;;;;;;;;;;;;11.08;60.13;99774.22;5065803;28;20313;-75
2023/10/19 06:30:34;;;;;;;;;;;;;;;11.18;60.19;99767.94;5059269;28;19947;-74
2023/10/19 06:33:02;;;;;;;;;;;;;;;11.27;60.09;99772.97;5051764;28;19913;-75
2023/10/19 06:35:29;;;;;;;;;;;;;;;11.30;60.37;99777.91;5057163;28;19912;-77
2023/10/19 06:37:58;;;;;;;;;;;;;;;11.38;60.26;99777.03;5071770;28;19922;-76
2023/10/19 06:40:24;;;;;;;;;;;;;;;11.45;60.41;99784.06;5071831;28;20423;-76
2023/10/19 06:42:49;;;;;;;;;;;;;;;11.52;60.18;99775.41;5070450;28;19912;-76
2023/10/19 06:45:15;;;;;;;;;;;;;;;11.59;59.86;99784.28;5070375;28;20015;-75
2023/10/19 06:47:45;;;;;;;;;;;;;;;11.63;60.16;99780.28;5068882;28;19927;-76
2023/10/19 06:50:11;;;;;;;;;;;;;;;11.66;60.53;99775.44;5067973;28;19940;-76
2023/10/19 06:52:37;;;;;;;;;;;;;;;11.67;60.55;99777.09;5069728;28;20317;-77
2023/10/19 06:55:07;;;;;;;;;;;;;;;11.74;60.26;99778.03;5070259;28;19923;-76
2023/10/19 06:57:35;;;;;;;;;;;;;;;11.82;60.76;99774.50;5069333;28;19967;-76
2023/10/19 07:00:10;;;;;;;;;;;;;;;11.89;60.86;99772.81;5073848;28;19955;-76
2023/10/19 07:02:35;;;;;;;;;;;;;;;12.01;60.59;99767.91;5071415;28;19951;-76
2023/10/19 07:05:02;;;;;;;;;;;;;;;12.08;60.91;99768.81;5071539;28;20402;-76
2023/10/19 07:07:27;;;;;;;;;;;;;;;12.14;61.18;99765.44;5071502;28;19912;-76
2023/10/19 07:09:53;;;;;;;;;;;;;;;12.18;61.21;99774.66;5071390;28;20337;-76
2023/10/19 07:12:18;;;;;;;;;;;;;;;12.28;61.33;99763.78;5069218;28;19969;-76
2023/10/19 07:14:43;;;;;;;;;;;;;;;12.38;62.56;99759.03;5065790;28;19923;-76
2023/10/19 07:17:08;;;;;;;;;;;;;;;12.49;60.74;99761.22;5070242;28;20308;-77
2023/10/19 07:19:34;;;;;;;;;;;;;;;12.63;60.47;99759.53;5075062;28;19921;-77
2023/10/19 07:22:04;;;;;;;;;;;;;;;12.71;61.11;99748.88;5072984;28;19916;-76
2023/10/19 07:24:29;;;;;;;;;;;;;;;12.84;60.62;99748.19;5073174;28;19924;-77
2023/10/19 07:27:04;;;;;;;;;;;;;;;12.91;61.13;99755.19;5055526;28;19913;-76
2023/10/19 07:29:30;;;;;;;;;;;;;;;13.00;61.04;99751.41;5061118;28;19921;-75
2023/10/19 07:31:56;;;;;;;;;;;;;;;13.10;60.94;99752.94;5071282;28;19920;-77
2023/10/19 07:34:27;;;;;;;;;;;;;;;13.17;60.76;99759.16;5074224;28;19956;-76
2023/10/19 07:36:54;;;;;;;;;;;;;;;13.22;61.25;99752.28;5073259;28;20359;-76
2023/10/19 07:39:19;;;;;;;;;;;;;;;13.31;60.40;99752.97;5072323;28;19928;-74
2023/10/19 07:41:46;;;;;;;;;;;;;;;13.35;59.99;99752.38;5075007;28;19912;-76
2023/10/19 07:44:11;;;;;;;;;;;;;;;13.38;60.61;99745.06;5074125;28;19962;-76
2023/10/19 07:46:37;;;;;;;;;;;;;;;13.46;60.77;99750.25;5069799;28;19963;-77
2023/10/19 07:49:03;;;;;;;;;;;;;;;13.53;60.53;99738.69;5061095;28;20389;-77
2023/10/19 07:51:28;;;;;;;;;;;;;;;13.63;60.14;99738.34;5068225;28;19916;-77
2023/10/19 07:53:53;;;;;;;;;;;;;;;13.73;60.08;99735.38;5065902;28;19917;-76
2023/10/19 07:56:19;;;;;;;;;;;;;;;13.80;60.19;99741.53;5074280;28;19909;-77
2023/10/19 07:58:44;;;;;;;;;;;;;;;13.85;60.14;99745.25;5071711;28;20474;-76
2023/10/19 08:01:11;;;;;;;;;;;;;;;13.92;59.96;99742.63;5070956;28;20436;-74
2023/10/19 08:03:36;;;;;;;;;;;;;;;14.02;59.33;99737.78;5070649;28;19917;-77
2023/10/19 08:06:01;;;;;;;;;;;;;;;14.15;59.38;99739.75;5058956;28;19924;-76
2023/10/19 08:08:33;;;;;;;;;;;;;;;14.24;59.16;99736.72;5054433;28;19920;-77
2023/10/19 08:10:59;;;;;;;;;;;;;;;14.37;58.00;99735.13;5070185;28;19923;-77
2023/10/19 08:13:26;;;;;;;;;;;;;;;14.46;58.46;99733.97;5072014;28;19916;-75
2023/10/19 08:15:51;;;;;;;;;;;;;;;14.56;58.40;99724.63;5072129;28;19916;-77
2023/10/19 08:18:17;;;;;;;;;;;;;;;14.65;58.37;99721.78;5070282;28;19920;-77
2023/10/19 08:20:45;;;;;;;;;;;;;;;14.72;58.56;99722.63;5072704;28;19981;-76
2023/10/19 08:23:10;;;;;;;;;;;;;;;14.74;58.44;99718.75;5063295;28;19920;-77
2023/10/19 08:25:36;;;;;;;;;;;;;;;14.84;57.84;99711.19;5073286;28;19992;-77
2023/10/19 08:28:01;;;;;;;;;;;;;;;14.90;57.56;99715.75;5069386;28;19916;-77
2023/10/19 08:30:26;;;;;;;;;;;;;;;14.94;57.50;99714.31;5071760;28;20457;-77
2023/10/19 08:32:52;;;;;;;;;;;;;;;15.00;57.07;99715.34;5069923;28;19920;-77
2023/10/19 08:35:24;;;;;;;;;;;;;;;15.02;57.82;99701.84;5074116;28;20313;-77
2023/10/19 08:37:49;;;;;;;;;;;;;;;15.10;57.96;99705.13;5071121;28;19963;-77
2023/10/19 08:40:15;;;;;;;;;;;;;;;15.16;57.83;99708.81;5069039;28;19959;-76
2023/10/19 08:42:45;;;;;;;;;;;;;;;15.23;57.26;99712.31;5071441;28;19916;-77
2023/10/19 08:45:12;;;;;;;;;;;;;;;15.25;57.14;99705.75;5069099;28;19924;-77
2023/10/19 08:47:40;;;;;;;;;;;;;;;15.34;57.43;99705.56;5071743;28;19917;-76
2023/10/19 08:50:07;;;;;;;;;;;;;;;15.48;57.15;99699.19;5064009;28;19958;-78
2023/10/19 08:52:33;;;;;;;;;;;;;;;15.52;56.89;99695.09;5070892;28;19917;-78
2023/10/19 08:54:58;;;;;;;;;;;;;;;15.61;56.89;99695.78;5070067;28;19923;-78
2023/10/19 08:57:24;;;;;;;;;;;;;;;15.70;56.43;99699.84;5072063;28;19920;-76
2023/10/19 08:59:49;;;;;;;;;;;;;;;15.75;56.25;99695.53;5065613;28;19920;-77
2023/10/19 09:02:16;;;;;;;;;;;;;;;15.82;56.21;99700.84;5063578;28;20382;-77
2023/10/19 09:04:47;;;;;;;;;;;;;;;15.91;56.02;99702.25;5068693;28;19925;-77
2023/10/19 09:07:12;;;;;;;;;;;;;;;15.91;56.41;99696.94;5070033;28;19916;-76
2023/10/19 09:09:40;;;;;;;;;;;;;;;15.98;56.11;99696.91;5068722;28;19975;-76
2023/10/19 09:12:09;;;;;;;;;;;;;;;16.07;55.70;99687.69;5068195;28;19958;-77
2023/10/19 09:14:36;;;;;;;;;;;;;;;16.20;55.80;99688.44;5061905;28;20352;-76
2023/10/19 09:17:03;;;;;;;;;;;;;;;16.31;55.31;99683.47;5059799;28;19916;-77
2023/10/19 09:19:38;;;;;;;;;;;;;;;16.28;55.66;99679.41;5052988;28;20297;-76
2023/10/19 09:22:07;;;;;;;;;;;;;;;16.38;55.16;99673.63;5058427;28;19923;-77
2023/10/19 09:24:33;;;;;;;;;;;;;;;16.48;55.56;99661.50;5057294;28;19917;-77
2023/10/19 09:26:59;;;;;;;;;;;;;;;16.57;55.02;99666.56;5066061;28;19918;-76
2023/10/19 09:29:25;;;;;;;;;;;;;;;16.69;54.98;99662.22;5072917;28;19912;-77
2023/10/19 09:31:52;;;;;;;;;;;;;;;16.83;55.09;99659.25;5057601;28;19928;-77
2023/10/19 09:34:18;;;;;;;;;;;;;;;16.99;55.11;99657.09;5056075;28;19928;-77
2023/10/19 09:36:44;;;;;;;;;;;;;;;17.08;54.43;99655.78;5054855;28;19913;-77
2023/10/19 09:39:12;;;;;;;;;;;;;;;17.19;53.97;99654.28;5069901;28;19970;-76
2023/10/19 09:41:38;;;;;;;;;;;;;;;17.30;53.62;99645.56;5060753;28;19973;-77
2023/10/19 09:44:07;;;;;;;;;;;;;;;17.38;53.59;99650.63;5066480;28;19916;-77
2023/10/19 09:46:36;;;;;;;;;;;;;;;17.43;54.04;99640.94;5072191;28;19939;-76
2023/10/19 09:49:02;;;;;;;;;;;;;;;17.49;53.40;99641.91;5072608;28;19919;-77
2023/10/19 09:51:28;;;;;;;;;;;;;;;17.55;53.15;99637.53;5072636;28;20011;-77
2023/10/19 09:53:58;;;;;;;;;;;;;;;17.64;53.17;99631.69;5070141;28;19921;-77
2023/10/19 09:56:27;;;;;;;;;;;;;;;17.72;52.61;99625.25;5058689;28;19923;-77
2023/10/19 09:58:55;;;;;;;;;;;;;;;17.76;52.40;99619.25;5056138;28;19921;-76
2023/10/19 10:01:23;;;;;;;;;;;;;;;17.89;52.37;99614.84;5059385;28;19983;-75
2023/10/19 10:03:52;;;;;;;;;;;;;;;18.03;51.93;99619.78;5060829;28;19924;-75
2023/10/19 10:06:29;;;;;;;;;;;;;;;18.15;52.05;99609.16;5072336;28;19964;-76
2023/10/19 10:08:55;;;;;;;;;;;;;;;18.28;51.82;99617.00;5071764;28;20003;-76
2023/10/19 10:11:27;;;;;;;;;;;;;;;18.38;51.02;99609.25;5059856;28;19963;-76
2023/10/19 10:13:54;;;;;;;;;;;;;;;18.45;51.65;99608.34;5071908;28;19920;-76
2023/10/19 10:16:24;;;;;;;;;;;;;;;18.57;51.27;99598.50;5072005;28;20399;-76
2023/10/19 10:18:50;;;;;;;;;;;;;;;18.56;51.26;99594.19;5069226;28;19970;-76
2023/10/19 10:21:16;;;;;;;;;;;;;;;18.51;51.00;99602.09;5071952;28;19917;-76
2023/10/19 10:23:48;;;;;;;;;;;;;;;18.59;51.21;99591.91;5072111;28;19913;-76
2023/10/19 10:26:13;;;;;;;;;;;;;;;18.72;50.66;99588.25;5068250;28;19919;-77
2023/10/19 10:28:39;;;;;;;;;;;;;;;18.83;50.37;99574.06;5072060;28;20015;-77
2023/10/19 10:31:21;;;;;;;;;;;;;;;18.94;50.03;99572.44;5070659;28;19912;-78
2023/10/19 10:33:51;;;;;;;;;;;;;;;19.02;50.09;99569.44;5073071;28;19966;-76
2023/10/19 10:36:17;;;;;;;;;;;;;;;19.15;49.88;99558.50;5068567;28;19935;-77
2023/10/19 10:38:43;;;;;;;;;;;;;;;19.28;49.14;99549.41;5070268;28;19916;-77
2023/10/19 10:41:09;;;;;;;;;;;;;;;19.42;49.75;99555.34;5071684;28;19917;-77
2023/10/19 10:43:48;;;;;;;;;;;;;;;19.57;49.24;99539.63;5072065;28;20352;-76
2023/10/19 10:46:13;;;;;;;;;;;;;;;19.71;49.20;99534.81;5069435;28;20315;-76
2023/10/19 10:48:41;;;;;;;;;;;;;;;19.81;48.33;99540.38;5070162;28;19916;-78
2023/10/19 10:51:16;;;;;;;;;;;;;;;19.87;48.33;99523.34;5070916;28;19916;-77
2023/10/19 10:53:41;;;;;;;;;;;;;;;19.89;48.36;99519.38;5070466;28;20080;-76
2023/10/19 10:56:07;;;;;;;;;;;;;;;19.82;47.77;99512.53;5071641;28;20437;-77
2023/10/19 10:58:32;;;;;;;;;;;;;;;19.75;48.23;99504.63;5061498;28;19916;-77
2023/10/19 11:00:57;;;;;;;;;;;;;;;19.71;48.55;99502.69;5071248;28;19921;-76
2023/10/19 11:03:24;;;;;;;;;;;;;;;19.67;48.14;99496.97;5068848;28;19999;-77
2023/10/19 11:05:49;;;;;;;;;;;;;;;19.67;47.94;99489.75;5071343;28;20003;-76
2023/10/19 11:08:24;;;;;;;;;;;;;;;19.67;48.61;99494.31;5071439;28;20007;-77
2023/10/19 11:10:50;;;;;;;;;;;;;;;19.70;48.40;99485.78;5067345;28;19927;-76
2023/10/19 11:13:22;;;;;;;;;;;;;;;19.77;47.11;99497.19;5070640;28;19916;-76
2023/10/19 11:15:48;;;;;;;;;;;;;;;19.83;48.31;99496.22;5071218;28;19912;-76
2023/10/19 11:18:28;;;;;;;;;;;;;;;19.93;47.71;99488.38;5060987;28;19991;-76
2023/10/19 11:20:59;;;;;;;;;;;;;;;19.95;48.04;99485.44;5070304;28;19912;-77
2023/10/19 11:23:37;;;;;;;;;;;;;;;19.95;47.89;99488.13;5066366;28;20038;-77
2023/10/19 11:26:05;;;;;;;;;;;;;;;19.93;48.11;99474.16;5069019;28;19917;-76
2023/10/19 11:28:31;;;;;;;;;;;;;;;19.92;47.34;99481.38;5068706;28;19964;-77
2023/10/19 11:31:10;;;;;;;;;;;;;;;19.97;47.73;99473.44;5068780;28;19967;-77
2023/10/19 11:33:35;;;;;;;;;;;;;;;19.99;47.58;99468.66;5063079;28;19963;-77
2023/10/19 11:36:00;;;;;;;;;;;;;;;20.01;47.50;99463.03;5059605;28;19940;-76
2023/10/19 11:38:25;;;;;;;;;;;;;;;19.99;47.37;99449.88;5069673;28;19916;-77
2023/10/19 11:40:52;;;;;;;;;;;;;;;20.02;48.10;99447.78;5070862;28;19955;-77
2023/10/19 11:43:18;;;;;;;;;;;;;;;19.98;47.71;99447.44;5064826;28;19917;-77
2023/10/19 11:45:43;;;;;;;;;;;;;;;19.99;47.46;99447.22;5060978;28;19999;-75
2023/10/19 11:48:08;;;;;;;;;;;;;;;19.99;47.52;99443.72;5062693;28;19996;-75
2023/10/19 11:50:34;;;;;;;;;;;;;;;19.96;48.22;99441.53;5069682;28;20309;-76
2023/10/19 11:52:59;;;;;;;;;;;;;;;19.83;47.20;99431.09;5069570;28;19935;-75
2023/10/19 11:55:24;;;;;;;;;;;;;;;19.78;48.08;99436.38;5070937;28;19912;-76
2023/10/19 11:57:50;;;;;;;;;;;;;;;19.72;48.12;99440.00;5070934;28;19927;-76
2023/10/19 12:00:21;;;;;;;;;;;;;;;19.65;48.14;99440.97;5068011;28;20465;-76
2023/10/19 12:02:47;;;;;;;;;;;;;;;19.61;48.46;99436.34;5068289;28;20332;-75
2023/10/19 12:05:12;;;;;;;;;;;;;;;19.55;48.23;99421.22;5072508;28;19920;-75
2023/10/19 12:07:38;;;;;;;;;;;;;;;19.51;48.63;99423.53;5068202;28;19916;-75
2023/10/19 12:10:07;;;;;;;;;;;;;;;19.48;48.73;99417.84;5070872;28;19916;-74
2023/10/19 12:12:33;;;;;;;;;;;;;;;19.45;48.64;99411.09;5062529;28;19917;-76
2023/10/19 12:14:59;;;;;;;;;;;;;;;19.43;48.88;99410.53;5063011;28;19917;-76
2023/10/19 12:17:26;;;;;;;;;;;;;;;19.44;48.74;99417.50;5054435;28;20455;-76
2023/10/19 12:19:51;;;;;;;;;;;;;;;19.44;48.04;99409.47;5054278;28;19916;-74
2023/10/19 12:22:17;;;;;;;;;;;;;;;19.47;48.14;99416.22;5054632;28;19935;-75
2023/10/19 12:24:43;;;;;;;;;;;;;;;19.49;48.38;99409.56;5064997;28;20022;-74
2023/10/19 12:27:08;;;;;;;;;;;;;;;19.50;47.82;99405.84;5072409;28;19916;-76
2023/10/19 12:29:33;;;;;;;;;;;;;;;19.50;47.53;99405.03;5065428;28;19923;-76
2023/10/19 12:31:58;;;;;;;;;;;;;;;19.49;48.12;99400.72;5072685;28;19919;-74
2023/10/19 12:34:24;;;;;;;;;;;;;;;19.50;47.99;99397.00;5068647;28;19923;-76
2023/10/19 12:36:51;;;;;;;;;;;;;;;19.51;48.29;99399.44;5070850;28;19916;-76
2023/10/19 12:39:35;;;;;;;;;;;;;;;19.50;47.14;99397.81;5064143;28;19973;-77
2023/10/19 12:42:01;;;;;;;;;;;;;;;19.47;46.48;99392.13;5061716;28;19920;-76
2023/10/19 12:44:28;;;;;;;;;;;;;;;19.45;47.75;99394.22;5067736;28;20394;-76
2023/10/19 12:46:54;;;;;;;;;;;;;;;19.41;47.89;99390.41;5070860;28;20019;-76
2023/10/19 12:49:25;;;;;;;;;;;;;;;19.36;48.58;99396.47;5073930;28;20397;-75
2023/10/19 12:51:51;;;;;;;;;;;;;;;19.33;48.03;99396.94;5073292;28;19913;-76
2023/10/19 12:54:17;;;;;;;;;;;;;;;19.33;48.19;99388.91;5071587;28;19923;-77